createdAt,value
2018-06-29T00:00:09.771Z,1015.24
2018-06-29T00:02:02.719Z,1015.22
2018-06-29T00:03:02.737Z,1015.19
2018-06-29T00:04:55.653Z,1015.16
2018-06-29T00:05:55.682Z,1015.11
2018-06-29T00:07:48.633Z,1015.10
2018-06-29T00:08:48.634Z,1015.14
2018-06-29T00:10:41.564Z,1015.17
2018-06-29T00:11:41.589Z,1015.17
2018-06-29T00:13:34.535Z,1015.23
2018-06-29T00:14:34.541Z,1015.23
2018-06-29T00:16:27.958Z,1015.19
2018-06-29T00:17:27.977Z,1015.16
2018-06-29T00:19:20.958Z,1015.13
2018-06-29T00:20:20.960Z,1015.09
2018-06-29T00:22:13.909Z,1015.08
2018-06-29T00:23:13.915Z,1015.05
2018-06-29T00:25:06.843Z,1015.03
2018-06-29T00:26:06.868Z,1015.00
2018-06-29T00:27:59.818Z,1014.99
2018-06-29T00:28:59.824Z,1015.02
2018-06-29T00:30:52.754Z,1015.02
2018-06-29T00:31:52.779Z,1015.02
2018-06-29T00:33:45.726Z,1015.02
2018-06-29T00:34:45.734Z,1015.04
2018-06-29T00:36:40.203Z,1014.99
2018-06-29T00:37:40.222Z,1014.99
2018-06-29T00:39:33.244Z,1015.00
2018-06-29T00:40:33.178Z,1014.98
2018-06-29T00:42:26.824Z,1015.02
2018-06-29T00:43:26.610Z,1014.99
2018-06-29T00:45:19.571Z,1014.99
2018-06-29T00:46:19.595Z,1014.99
2018-06-29T00:48:12.545Z,1014.98
2018-06-29T00:49:12.553Z,1014.99
2018-06-29T00:51:05.992Z,1014.96
2018-06-29T00:52:06.019Z,1014.98
2018-06-29T00:53:58.966Z,1014.95
2018-06-29T00:54:58.970Z,1014.95
2018-06-29T00:56:51.886Z,1014.94
2018-06-29T00:57:51.915Z,1014.87
2018-06-29T00:59:44.873Z,1014.90
2018-06-29T01:00:44.881Z,1014.89
2018-06-29T01:02:37.822Z,1014.86
2018-06-29T01:03:37.832Z,1014.90
2018-06-29T01:05:30.781Z,1014.88
2018-06-29T01:06:30.786Z,1014.86
2018-06-29T01:08:23.736Z,1014.87
2018-06-29T01:09:23.763Z,1014.91
2018-06-29T01:11:16.673Z,1014.93
2018-06-29T01:12:16.698Z,1014.91
2018-06-29T01:14:09.643Z,1014.88
2018-06-29T01:15:09.651Z,1014.88
2018-06-29T01:17:02.578Z,1014.83
2018-06-29T01:18:02.602Z,1014.81
2018-06-29T01:19:55.552Z,1014.86
2018-06-29T01:20:55.557Z,1014.89
2018-06-29T01:22:48.485Z,1014.92
2018-06-29T01:23:48.512Z,1014.95
2018-06-29T01:25:41.461Z,1014.90
2018-06-29T01:26:41.466Z,1014.90
2018-06-29T01:28:34.450Z,1014.92
2018-06-29T01:29:34.418Z,1014.90
2018-06-29T01:31:27.369Z,1014.91
2018-06-29T01:32:27.373Z,1014.96
2018-06-29T01:34:20.320Z,1014.96
2018-06-29T01:35:20.326Z,1015.01
2018-06-29T01:37:13.256Z,1015.00
2018-06-29T01:38:13.279Z,1014.99
2018-06-29T01:40:06.230Z,1014.99
2018-06-29T01:41:06.238Z,1014.96
2018-06-29T01:42:59.169Z,1014.97
2018-06-29T01:43:59.189Z,1014.94
2018-06-29T01:45:52.148Z,1014.97
2018-06-29T01:46:52.145Z,1014.96
2018-06-29T01:48:45.072Z,1014.89
2018-06-29T01:49:45.098Z,1014.91
2018-06-29T01:51:38.045Z,1014.91
2018-06-29T01:52:38.101Z,1014.91
2018-06-29T01:54:30.999Z,1014.87
2018-06-29T01:55:31.004Z,1014.88
2018-06-29T01:57:23.938Z,1014.87
2018-06-29T01:58:23.961Z,1014.88
2018-06-29T02:00:16.910Z,1014.84
2018-06-29T02:01:16.914Z,1014.87
2018-06-29T02:03:09.846Z,1014.82
2018-06-29T02:04:09.867Z,1014.82
2018-06-29T02:06:02.818Z,1014.78
2018-06-29T02:07:02.823Z,1014.76
2018-06-29T02:08:55.751Z,1014.77
2018-06-29T02:09:55.775Z,1014.76
2018-06-29T02:11:48.724Z,1014.72
2018-06-29T02:12:48.728Z,1014.71
2018-06-29T02:14:41.683Z,1014.76
2018-06-29T02:15:41.685Z,1014.68
2018-06-29T02:17:34.632Z,1014.68
2018-06-29T02:18:34.638Z,1014.66
2018-06-29T02:20:27.589Z,1014.65
2018-06-29T02:21:27.592Z,1014.65
2018-06-29T02:23:20.507Z,1014.62
2018-06-29T02:24:20.535Z,1014.62
2018-06-29T02:26:13.502Z,1014.58
2018-06-29T02:27:13.498Z,1014.57
2018-06-29T02:29:06.440Z,1014.56
2018-06-29T02:30:06.453Z,1014.57
2018-06-29T02:31:59.403Z,1014.54
2018-06-29T02:32:59.407Z,1014.52
2018-06-29T02:34:52.321Z,1014.57
2018-06-29T02:35:52.349Z,1014.55
2018-06-29T02:37:45.310Z,1014.57
2018-06-29T02:38:45.316Z,1014.57
2018-06-29T02:40:38.266Z,1014.54
2018-06-29T02:41:38.276Z,1014.52
2018-06-29T02:43:31.203Z,1014.52
2018-06-29T02:44:31.226Z,1014.53
2018-06-29T02:46:24.176Z,1014.51
2018-06-29T02:47:24.183Z,1014.57
2018-06-29T02:49:17.621Z,1014.60
2018-06-29T02:50:17.648Z,1014.61
2018-06-29T02:52:10.594Z,1014.66
2018-06-29T02:53:10.604Z,1014.64
2018-06-29T02:55:03.530Z,1014.62
2018-06-29T02:56:03.553Z,1014.58
2018-06-29T02:57:56.497Z,1014.63
2018-06-29T02:58:56.494Z,1014.61
2018-06-29T03:00:49.438Z,1014.66
2018-06-29T03:01:49.463Z,1014.68
2018-06-29T03:03:42.409Z,1014.70
2018-06-29T03:04:42.419Z,1014.71
2018-06-29T03:06:35.366Z,1014.64
2018-06-29T03:07:35.369Z,1014.68
2018-06-29T03:09:28.810Z,1014.68
2018-06-29T03:10:28.838Z,1014.70
2018-06-29T03:12:21.791Z,1014.72
2018-06-29T03:13:21.788Z,1014.73
2018-06-29T03:15:14.734Z,1014.72
2018-06-29T03:16:14.747Z,1014.68
2018-06-29T03:18:08.209Z,1014.65
2018-06-29T03:19:08.213Z,1014.67
2018-06-29T03:21:01.144Z,1014.69
2018-06-29T03:22:01.182Z,1014.73
2018-06-29T03:23:54.112Z,1014.70
2018-06-29T03:24:54.118Z,1014.70
2018-06-29T03:26:47.068Z,1014.66
2018-06-29T03:27:47.074Z,1014.66
2018-06-29T03:29:40.000Z,1014.61
2018-06-29T03:30:40.027Z,1014.61
2018-06-29T03:32:32.976Z,1014.65
2018-06-29T03:33:33.020Z,1014.60
2018-06-29T03:35:25.909Z,1014.61
2018-06-29T03:36:25.930Z,1014.58
2018-06-29T03:38:18.883Z,1014.51
2018-06-29T03:39:18.888Z,1014.54
2018-06-29T03:41:12.331Z,1014.49
2018-06-29T03:42:12.354Z,1014.51
2018-06-29T03:44:05.296Z,1014.56
2018-06-29T03:45:05.297Z,1014.51
2018-06-29T03:46:58.237Z,1014.53
2018-06-29T03:47:58.265Z,1014.55
2018-06-29T03:49:51.211Z,1014.56
2018-06-29T03:50:51.217Z,1014.54
2018-06-29T03:52:44.165Z,1014.52
2018-06-29T03:53:44.171Z,1014.51
2018-06-29T03:55:37.102Z,1014.48
2018-06-29T03:56:37.124Z,1014.47
2018-06-29T03:58:30.085Z,1014.42
2018-06-29T03:59:30.083Z,1014.43
2018-06-29T04:01:23.525Z,1014.47
2018-06-29T04:02:23.551Z,1014.45
2018-06-29T04:04:16.494Z,1014.42
2018-06-29T04:05:16.504Z,1014.40
2018-06-29T04:07:09.436Z,1014.35
2018-06-29T04:08:09.458Z,1014.39
2018-06-29T04:10:03.050Z,1014.40
2018-06-29T04:11:02.956Z,1014.47
2018-06-29T04:12:55.900Z,1014.50
2018-06-29T04:13:55.878Z,1014.53
2018-06-29T04:15:48.826Z,1014.50
2018-06-29T04:16:48.857Z,1014.51
2018-06-29T04:18:41.782Z,1014.53
2018-06-29T04:19:41.792Z,1014.46
2018-06-29T04:21:34.717Z,1014.46
2018-06-29T04:22:34.741Z,1014.47
2018-06-29T04:24:27.690Z,1014.52
2018-06-29T04:25:27.697Z,1014.52
2018-06-29T04:27:20.725Z,1014.48
2018-06-29T04:28:20.751Z,1014.48
2018-06-29T04:30:13.802Z,1014.50
2018-06-29T04:31:13.810Z,1014.54
2018-06-29T04:33:07.257Z,1014.60
2018-06-29T04:34:07.402Z,1014.55
2018-06-29T04:36:00.324Z,1014.52
2018-06-29T04:37:00.335Z,1014.53
2018-06-29T04:38:53.386Z,1014.56
2018-06-29T04:39:53.391Z,1014.51
2018-06-29T04:41:46.427Z,1014.46
2018-06-29T04:42:46.506Z,1014.54
2018-06-29T04:44:39.496Z,1014.50
2018-06-29T04:45:39.506Z,1014.52
2018-06-29T04:47:32.943Z,1014.52
2018-06-29T04:48:32.970Z,1014.51
2018-06-29T04:50:26.020Z,1014.47
2018-06-29T04:51:26.032Z,1014.44
2018-06-29T04:53:18.961Z,1014.43
2018-06-29T04:54:18.982Z,1014.48
2018-06-29T04:56:12.333Z,1014.50
2018-06-29T04:57:12.345Z,1014.51
2018-06-29T04:59:05.391Z,1014.52
2018-06-29T05:00:05.403Z,1014.52
2018-06-29T05:01:58.442Z,1014.58
2018-06-29T05:02:58.474Z,1014.59
2018-06-29T05:04:51.504Z,1014.56
2018-06-29T05:05:51.515Z,1014.62
2018-06-29T05:07:44.542Z,1014.59
2018-06-29T05:08:44.576Z,1014.61
2018-06-29T05:10:38.029Z,1014.60
2018-06-29T05:11:38.041Z,1014.65
2018-06-29T05:13:32.500Z,1014.63
2018-06-29T05:14:32.536Z,1014.61
2018-06-29T05:16:25.579Z,1014.59
2018-06-29T05:17:25.589Z,1014.66
2018-06-29T05:19:18.612Z,1014.65
2018-06-29T05:20:18.645Z,1014.63
2018-06-29T05:22:11.686Z,1014.60
2018-06-29T05:23:11.700Z,1014.61
2018-06-29T05:25:04.745Z,1014.65
2018-06-29T05:26:04.758Z,1014.63
2018-06-29T05:27:57.780Z,1014.64
2018-06-29T05:28:57.814Z,1014.65
2018-06-29T05:30:50.858Z,1014.63
2018-06-29T05:31:50.872Z,1014.68
2018-06-29T05:33:43.808Z,1014.69
2018-06-29T05:34:43.836Z,1014.72
2018-06-29T05:36:36.789Z,1014.72
2018-06-29T05:37:36.804Z,1014.72
2018-06-29T05:39:29.750Z,1014.71
2018-06-29T05:40:29.776Z,1014.66
2018-06-29T05:42:22.730Z,1014.72
2018-06-29T05:43:22.739Z,1014.72
2018-06-29T05:45:15.707Z,1014.72
2018-06-29T05:46:15.815Z,1014.72
2018-06-29T05:48:08.649Z,1014.70
2018-06-29T05:49:08.676Z,1014.70
2018-06-29T05:51:02.125Z,1014.74
2018-06-29T05:52:02.140Z,1014.74
2018-06-29T05:53:55.568Z,1014.70
2018-06-29T05:54:55.606Z,1014.70
2018-06-29T05:56:48.556Z,1014.74
2018-06-29T05:57:48.568Z,1014.76
2018-06-29T05:59:41.503Z,1014.77
2018-06-29T06:00:41.539Z,1014.75
2018-06-29T06:02:34.488Z,1014.73
2018-06-29T06:03:34.503Z,1014.68
2018-06-29T06:05:27.439Z,1014.67
2018-06-29T06:06:27.467Z,1014.69
2018-06-29T06:08:20.425Z,1014.75
2018-06-29T06:09:20.440Z,1014.73
2018-06-29T06:11:13.396Z,1014.73
2018-06-29T06:12:13.411Z,1014.73
2018-06-29T06:14:06.349Z,1014.72
2018-06-29T06:15:06.391Z,1014.72
2018-06-29T06:16:59.342Z,1014.71
2018-06-29T06:17:59.356Z,1014.71
2018-06-29T06:19:52.293Z,1014.71
2018-06-29T06:20:52.351Z,1014.71
2018-06-29T06:22:45.286Z,1014.68
2018-06-29T06:23:45.298Z,1014.68
2018-06-29T06:25:38.234Z,1014.74
2018-06-29T06:26:38.271Z,1014.73
2018-06-29T06:28:31.233Z,1014.76
2018-06-29T06:29:31.251Z,1014.77
2018-06-29T06:31:24.187Z,1014.78
2018-06-29T06:32:24.223Z,1014.82
2018-06-29T06:34:17.186Z,1014.81
2018-06-29T06:35:17.198Z,1014.76
2018-06-29T06:37:10.171Z,1014.79
2018-06-29T06:38:10.175Z,1014.74
2018-06-29T06:40:03.112Z,1014.73
2018-06-29T06:41:03.149Z,1014.70
2018-06-29T06:42:56.600Z,1014.68
2018-06-29T06:43:56.621Z,1014.71
2018-06-29T06:45:49.560Z,1014.71
2018-06-29T06:46:49.662Z,1014.72
2018-06-29T06:48:42.560Z,1014.72
2018-06-29T06:49:42.583Z,1014.73
2018-06-29T06:51:35.519Z,1014.69
2018-06-29T06:52:35.559Z,1014.71
2018-06-29T06:54:28.517Z,1014.66
2018-06-29T06:55:28.532Z,1014.69
2018-06-29T06:57:21.971Z,1014.63
2018-06-29T06:58:22.004Z,1014.63
2018-06-29T07:00:14.963Z,1014.65
2018-06-29T07:01:14.981Z,1014.65
2018-06-29T07:03:07.939Z,1014.70
2018-06-29T07:04:07.954Z,1014.66
2018-06-29T07:06:01.394Z,1014.60
2018-06-29T07:07:01.430Z,1014.63
2018-06-29T07:08:54.391Z,1014.60
2018-06-29T07:09:54.449Z,1014.59
2018-06-29T07:11:47.352Z,1014.60
2018-06-29T07:12:47.417Z,1014.55
2018-06-29T07:14:40.351Z,1014.60
2018-06-29T07:15:40.373Z,1014.60
2018-06-29T07:17:33.311Z,1014.62
2018-06-29T07:18:33.349Z,1014.61
2018-06-29T07:20:26.312Z,1014.64
2018-06-29T07:21:26.342Z,1014.63
2018-06-29T07:23:19.276Z,1014.67
2018-06-29T07:24:19.313Z,1014.61
2018-06-29T07:26:12.276Z,1014.63
2018-06-29T07:27:12.296Z,1014.64
2018-06-29T07:29:05.265Z,1014.56
2018-06-29T07:30:05.346Z,1014.54
2018-06-29T07:31:58.221Z,1014.57
2018-06-29T07:32:58.259Z,1014.54
2018-06-29T07:34:52.711Z,1014.58
2018-06-29T07:35:52.728Z,1014.49
2018-06-29T07:37:45.672Z,1014.48
2018-06-29T07:38:45.739Z,1014.50
2018-06-29T07:40:38.657Z,1014.45
2018-06-29T07:41:38.670Z,1014.43
2018-06-29T07:43:32.103Z,1014.43
2018-06-29T07:44:32.144Z,1014.42
2018-06-29T07:46:25.085Z,1014.44
2018-06-29T07:47:25.096Z,1014.36
2018-06-29T07:49:18.050Z,1014.37
2018-06-29T07:50:18.060Z,1014.38
2018-06-29T07:52:11.013Z,1014.35
2018-06-29T07:53:11.023Z,1014.39
2018-06-29T07:55:03.987Z,1014.37
2018-06-29T07:56:03.980Z,1014.43
2018-06-29T07:57:56.910Z,1014.34
2018-06-29T07:58:56.952Z,1014.32
2018-06-29T08:00:49.893Z,1014.29
2018-06-29T08:01:49.900Z,1014.27
2018-06-29T08:03:42.828Z,1014.27
2018-06-29T08:04:42.859Z,1014.27
2018-06-29T08:06:35.809Z,1014.22
2018-06-29T08:07:35.816Z,1014.24
2018-06-29T08:09:28.746Z,1014.21
2018-06-29T08:10:28.772Z,1014.19
2018-06-29T08:12:21.722Z,1014.21
2018-06-29T08:13:21.729Z,1014.20
2018-06-29T08:15:15.148Z,1014.26
2018-06-29T08:16:15.181Z,1014.23
2018-06-29T08:18:08.129Z,1014.20
2018-06-29T08:19:08.138Z,1014.17
2018-06-29T08:21:01.580Z,1014.24
2018-06-29T08:22:01.590Z,1014.18
2018-06-29T08:23:54.520Z,1014.23
2018-06-29T08:24:54.546Z,1014.18
2018-06-29T08:26:47.511Z,1014.10
2018-06-29T08:27:47.524Z,1014.13
2018-06-29T08:29:40.942Z,1014.06
2018-06-29T08:30:40.988Z,1014.02
2018-06-29T08:32:33.921Z,1014.07
2018-06-29T08:33:33.928Z,1014.04
2018-06-29T08:35:26.852Z,1014.03
2018-06-29T08:36:26.883Z,1014.06
2018-06-29T08:38:19.838Z,1014.01
2018-06-29T08:39:19.850Z,1014.04
2018-06-29T08:41:12.799Z,1014.01
2018-06-29T08:42:12.806Z,1014.03
2018-06-29T08:44:05.788Z,1013.99
2018-06-29T08:45:05.762Z,1014.03
2018-06-29T08:46:58.882Z,1013.99
2018-06-29T08:47:58.715Z,1014.02
2018-06-29T08:49:51.642Z,1013.99
2018-06-29T08:50:51.672Z,1013.94
2018-06-29T08:52:44.615Z,1013.97
2018-06-29T08:53:44.626Z,1013.96
2018-06-29T08:55:37.553Z,1013.99
2018-06-29T08:56:37.581Z,1013.91
2018-06-29T08:58:30.523Z,1013.96
2018-06-29T08:59:30.540Z,1013.96
2018-06-29T09:01:23.486Z,1013.98
2018-06-29T09:02:23.492Z,1014.08
2018-06-29T09:04:16.447Z,1013.95
2018-06-29T09:05:16.448Z,1013.93
2018-06-29T09:07:09.391Z,1013.95
2018-06-29T09:08:09.408Z,1013.88
2018-06-29T09:10:02.331Z,1014.00
2018-06-29T09:11:02.421Z,1013.95
2018-06-29T09:12:55.306Z,1013.87
2018-06-29T09:13:55.311Z,1013.80
2018-06-29T09:15:48.237Z,1013.79
2018-06-29T09:16:48.271Z,1013.84
2018-06-29T09:18:41.221Z,1013.80
2018-06-29T09:19:41.232Z,1013.77
2018-06-29T09:21:34.157Z,1013.78
2018-06-29T09:22:34.187Z,1013.78
2018-06-29T09:24:27.194Z,1013.82
2018-06-29T09:25:27.147Z,1013.86
2018-06-29T09:27:20.085Z,1013.82
2018-06-29T09:28:20.097Z,1013.76
2018-06-29T09:30:13.025Z,1013.71
2018-06-29T09:31:13.055Z,1013.68
2018-06-29T09:33:06.003Z,1013.71
2018-06-29T09:34:06.009Z,1013.73
2018-06-29T09:35:58.933Z,1013.69
2018-06-29T09:36:58.965Z,1013.64
2018-06-29T09:38:52.401Z,1013.58
2018-06-29T09:39:52.414Z,1013.64
2018-06-29T09:41:45.339Z,1013.63
2018-06-29T09:42:45.369Z,1013.59
2018-06-29T09:44:38.314Z,1013.57
2018-06-29T09:45:38.324Z,1013.61
2018-06-29T09:47:31.249Z,1013.55
2018-06-29T09:48:31.280Z,1013.55
2018-06-29T09:50:24.230Z,1013.54
2018-06-29T09:51:24.236Z,1013.56
2018-06-29T09:53:17.183Z,1013.57
2018-06-29T09:54:17.191Z,1013.53
2018-06-29T09:56:10.114Z,1013.57
2018-06-29T09:57:10.145Z,1013.48
2018-06-29T09:59:03.100Z,1013.47
2018-06-29T10:00:03.105Z,1013.45
2018-06-29T10:01:56.027Z,1013.38
2018-06-29T10:02:56.057Z,1013.37
2018-06-29T10:04:49.007Z,1013.28
2018-06-29T10:05:49.025Z,1013.34
2018-06-29T10:07:41.942Z,1013.30
2018-06-29T10:08:41.970Z,1013.31
2018-06-29T10:10:34.920Z,1013.26
2018-06-29T10:11:34.933Z,1013.28
2018-06-29T10:13:27.907Z,1013.23
2018-06-29T10:14:28.009Z,1013.19
2018-06-29T10:16:21.335Z,1013.19
2018-06-29T10:17:21.366Z,1013.17
2018-06-29T10:19:14.314Z,1013.13
2018-06-29T10:20:14.402Z,1013.16
2018-06-29T10:22:07.265Z,1013.15
2018-06-29T10:23:07.277Z,1013.13
2018-06-29T10:25:00.265Z,1013.18
2018-06-29T10:26:00.276Z,1013.13
2018-06-29T10:27:53.313Z,1013.13
2018-06-29T10:28:53.337Z,1013.14
2018-06-29T10:30:46.796Z,1013.14
2018-06-29T10:31:46.799Z,1013.13
2018-06-29T10:33:39.834Z,1013.18
2018-06-29T10:34:39.861Z,1013.19
2018-06-29T10:36:32.903Z,1013.25
2018-06-29T10:37:32.913Z,1013.23
2018-06-29T10:39:27.414Z,1013.28
2018-06-29T10:40:27.405Z,1013.26
2018-06-29T10:42:20.838Z,1013.20
2018-06-29T10:43:20.880Z,1013.14
2018-06-29T10:45:13.915Z,1013.09
2018-06-29T10:46:13.926Z,1013.10
2018-06-29T10:48:06.952Z,1013.10
2018-06-29T10:49:06.981Z,1013.02
2018-06-29T10:51:00.030Z,1012.94
2018-06-29T10:52:00.040Z,1013.05
2018-06-29T10:53:53.064Z,1012.93
2018-06-29T10:54:53.097Z,1012.92
2018-06-29T10:56:46.149Z,1012.91
2018-06-29T10:57:46.154Z,1012.95
2018-06-29T10:59:39.180Z,1012.92
2018-06-29T11:00:39.210Z,1012.94
2018-06-29T11:02:32.253Z,1012.91
2018-06-29T11:03:32.266Z,1012.91
2018-06-29T11:05:25.342Z,1012.90
2018-06-29T11:06:25.325Z,1012.90
2018-06-29T11:08:18.348Z,1012.87
2018-06-29T11:09:18.382Z,1012.84
2018-06-29T11:11:11.334Z,1012.85
2018-06-29T11:12:11.343Z,1012.77
2018-06-29T11:14:04.358Z,1012.80
2018-06-29T11:15:04.390Z,1012.77
2018-06-29T11:16:57.437Z,1012.75
2018-06-29T11:17:57.449Z,1012.74
2018-06-29T11:19:50.470Z,1012.75
2018-06-29T11:20:50.504Z,1012.77
2018-06-29T11:22:43.590Z,1012.80
2018-06-29T11:23:43.560Z,1012.77
2018-06-29T11:25:36.604Z,1012.78
2018-06-29T11:26:36.616Z,1012.75
2018-06-29T11:28:30.081Z,1012.72
2018-06-29T11:29:30.112Z,1012.73
2018-06-29T11:31:24.560Z,1012.73
2018-06-29T11:32:24.574Z,1012.66
2018-06-29T11:34:17.596Z,1012.67
2018-06-29T11:35:17.632Z,1012.70
2018-06-29T11:37:10.677Z,1012.65
2018-06-29T11:38:10.687Z,1012.62
2018-06-29T11:40:03.713Z,1012.65
2018-06-29T11:41:03.743Z,1012.77
2018-06-29T11:42:58.192Z,1012.64
2018-06-29T11:43:58.195Z,1012.66
2018-06-29T11:45:51.147Z,1012.62
2018-06-29T11:46:51.156Z,1012.65
2018-06-29T11:48:44.144Z,1012.61
2018-06-29T11:49:44.116Z,1012.63
2018-06-29T11:51:37.064Z,1012.57
2018-06-29T11:52:37.069Z,1012.67
2018-06-29T11:54:29.994Z,1012.59
2018-06-29T11:55:30.035Z,1012.54
2018-06-29T11:57:22.974Z,1012.52
2018-06-29T11:58:22.983Z,1012.47
2018-06-29T12:00:15.912Z,1012.48
2018-06-29T12:01:15.939Z,1012.48
2018-06-29T12:03:08.892Z,1012.53
2018-06-29T12:04:08.898Z,1012.53
2018-06-29T12:06:01.823Z,1012.49
2018-06-29T12:07:01.854Z,1012.51
2018-06-29T12:08:55.293Z,1012.48
2018-06-29T12:09:55.307Z,1012.50
2018-06-29T12:11:48.274Z,1012.35
2018-06-29T12:12:48.287Z,1012.40
2018-06-29T12:14:41.219Z,1012.38
2018-06-29T12:15:41.248Z,1012.41
2018-06-29T12:17:34.195Z,1012.49
2018-06-29T12:18:34.208Z,1012.40
2018-06-29T12:20:27.138Z,1012.33
2018-06-29T12:21:27.163Z,1012.40
2018-06-29T12:23:20.165Z,1012.32
2018-06-29T12:24:20.127Z,1012.33
2018-06-29T12:26:13.547Z,1012.30
2018-06-29T12:27:13.578Z,1012.26
2018-06-29T12:29:06.525Z,1012.23
2018-06-29T12:30:06.536Z,1012.24
2018-06-29T12:31:59.631Z,1012.24
2018-06-29T12:32:59.496Z,1012.21
2018-06-29T12:34:52.501Z,1012.20
2018-06-29T12:35:52.543Z,1012.26
2018-06-29T12:37:45.582Z,1012.15
2018-06-29T12:38:45.591Z,1012.15
2018-06-29T12:40:38.615Z,1012.13
2018-06-29T12:41:38.876Z,1012.13
2018-06-29T12:43:31.690Z,1012.14
2018-06-29T12:44:31.703Z,1012.22
2018-06-29T12:46:24.739Z,1012.07
2018-06-29T12:47:24.760Z,1012.06
2018-06-29T12:49:17.802Z,1012.07
2018-06-29T12:50:17.832Z,1012.05
2018-06-29T12:52:11.375Z,1012.00
2018-06-29T12:53:11.441Z,1012.02
2018-06-29T12:55:04.416Z,1012.04
2018-06-29T12:56:04.441Z,1011.92
2018-06-29T12:57:57.487Z,1012.06
2018-06-29T12:58:57.498Z,1011.94
2018-06-29T13:00:50.544Z,1011.94
2018-06-29T13:01:50.560Z,1011.93
2018-06-29T13:03:43.598Z,1011.86
2018-06-29T13:04:43.669Z,1011.88
2018-06-29T13:06:37.229Z,1011.84
2018-06-29T13:07:37.439Z,1011.81
2018-06-29T13:09:30.224Z,1011.85
2018-06-29T13:10:30.236Z,1011.76
2018-06-29T13:12:23.688Z,1011.81
2018-06-29T13:13:23.703Z,1011.84
2018-06-29T13:15:17.157Z,1011.80
2018-06-29T13:16:17.189Z,1011.78
2018-06-29T13:18:10.629Z,1011.77
2018-06-29T13:19:10.687Z,1011.85
2018-06-29T13:21:03.664Z,1011.70
2018-06-29T13:22:03.693Z,1011.78
2018-06-29T13:23:56.739Z,1011.82
2018-06-29T13:24:56.813Z,1011.77
2018-06-29T13:26:49.776Z,1011.66
2018-06-29T13:27:49.807Z,1011.65
2018-06-29T13:29:43.274Z,1011.60
2018-06-29T13:30:43.326Z,1011.59
2018-06-29T13:32:36.298Z,1011.56
2018-06-29T13:33:36.326Z,1011.62
2018-06-29T13:35:30.873Z,1011.56
2018-06-29T13:36:30.818Z,1011.52
2018-06-29T13:38:24.446Z,1011.57
2018-06-29T13:39:24.482Z,1011.52
2018-06-29T13:41:17.416Z,1011.53
2018-06-29T13:42:17.514Z,1011.49
2018-06-29T13:44:10.629Z,1011.58
2018-06-29T13:45:10.541Z,1011.54
2018-06-29T13:47:03.523Z,1011.48
2018-06-29T13:48:03.616Z,1011.50
2018-06-29T13:49:57.009Z,1011.48
2018-06-29T13:50:57.021Z,1011.41
2018-06-29T13:52:50.053Z,1011.48
2018-06-29T13:53:50.113Z,1011.51
2018-06-29T13:55:43.122Z,1011.47
2018-06-29T13:56:43.320Z,1011.45
2018-06-29T13:58:40.142Z,1011.39
2018-06-29T13:59:39.414Z,1011.42
2018-06-29T14:01:32.393Z,1011.40
2018-06-29T14:02:32.557Z,1011.32
2018-06-29T14:04:25.475Z,1011.35
2018-06-29T14:05:25.481Z,1011.38
2018-06-29T14:07:18.615Z,1011.35
2018-06-29T14:08:18.667Z,1011.34
2018-06-29T14:10:11.988Z,1011.40
2018-06-29T14:11:12.002Z,1011.33
2018-06-29T14:13:05.032Z,1011.37
2018-06-29T14:14:05.063Z,1011.45
2018-06-29T14:15:59.542Z,1011.34
2018-06-29T14:16:59.549Z,1011.32
2018-06-29T14:18:52.572Z,1011.28
2018-06-29T14:19:52.605Z,1011.22
2018-06-29T14:21:45.650Z,1011.17
2018-06-29T14:22:45.788Z,1011.20
2018-06-29T14:24:38.689Z,1011.14
2018-06-29T14:25:38.716Z,1011.18
2018-06-29T14:27:32.171Z,1011.20
2018-06-29T14:28:32.183Z,1011.12
2018-06-29T14:30:25.241Z,1011.17
2018-06-29T14:31:25.241Z,1011.17
2018-06-29T14:33:19.194Z,1011.20
2018-06-29T14:34:19.241Z,1011.16
2018-06-29T14:36:12.261Z,1011.11
2018-06-29T14:37:12.272Z,1011.08
2018-06-29T14:39:05.305Z,1011.10
2018-06-29T14:40:05.358Z,1011.10
2018-06-29T14:41:58.374Z,1011.06
2018-06-29T14:42:58.392Z,1011.08
2018-06-29T14:44:51.444Z,1011.05
2018-06-29T14:45:51.444Z,1011.12
2018-06-29T14:47:44.508Z,1011.04
2018-06-29T14:48:44.500Z,1010.99
2018-06-29T14:50:37.933Z,1010.94
2018-06-29T14:51:37.965Z,1010.91
2018-06-29T14:53:31.011Z,1010.92
2018-06-29T14:54:31.025Z,1010.87
2018-06-29T14:56:24.067Z,1010.94
2018-06-29T14:57:24.087Z,1010.92
2018-06-29T14:59:17.106Z,1010.89
2018-06-29T15:00:17.205Z,1010.83
2018-06-29T15:02:10.590Z,1010.87
2018-06-29T15:03:10.605Z,1010.91
2018-06-29T15:05:03.750Z,1010.86
2018-06-29T15:06:03.723Z,1010.84
2018-06-29T15:07:56.706Z,1010.81
2018-06-29T15:08:56.716Z,1010.85
2018-06-29T15:10:49.741Z,1010.77
2018-06-29T15:11:49.774Z,1010.85
2018-06-29T15:13:43.223Z,1010.80
2018-06-29T15:14:43.243Z,1010.83
2018-06-29T15:16:36.840Z,1010.71
2018-06-29T15:17:36.871Z,1010.71
2018-06-29T15:19:29.855Z,1010.72
2018-06-29T15:20:29.863Z,1010.70
2018-06-29T15:22:22.910Z,1010.73
2018-06-29T15:23:22.922Z,1010.71
2018-06-29T15:25:15.961Z,1010.69
2018-06-29T15:26:15.980Z,1010.67
2018-06-29T15:28:09.025Z,1010.63
2018-06-29T15:29:09.036Z,1010.59
2018-06-29T15:31:02.473Z,1010.58
2018-06-29T15:32:02.505Z,1010.61
2018-06-29T15:33:55.544Z,1010.60
2018-06-29T15:34:55.564Z,1010.58
2018-06-29T15:36:48.992Z,1010.60
2018-06-29T15:37:49.024Z,1010.56
2018-06-29T15:39:42.583Z,1010.60
2018-06-29T15:40:42.597Z,1010.56
2018-06-29T15:42:35.637Z,1010.54
2018-06-29T15:43:35.650Z,1010.48
2018-06-29T15:45:29.089Z,1010.52
2018-06-29T15:46:29.118Z,1010.51
2018-06-29T15:48:22.159Z,1010.54
2018-06-29T15:49:22.172Z,1010.57
2018-06-29T15:51:15.196Z,1010.62
2018-06-29T15:52:15.233Z,1010.60
2018-06-29T15:54:08.271Z,1010.59
2018-06-29T15:55:08.306Z,1010.56
2018-06-29T15:57:01.310Z,1010.56
2018-06-29T15:58:01.339Z,1010.52
2018-06-29T15:59:55.815Z,1010.57
2018-06-29T16:00:55.832Z,1010.53
2018-06-29T16:02:48.888Z,1010.46
2018-06-29T16:03:48.888Z,1010.49
2018-06-29T16:05:41.913Z,1010.46
2018-06-29T16:06:41.970Z,1010.46
2018-06-29T16:08:34.986Z,1010.44
2018-06-29T16:09:34.999Z,1010.40
2018-06-29T16:11:28.026Z,1010.42
2018-06-29T16:12:28.067Z,1010.43
2018-06-29T16:14:21.100Z,1010.50
2018-06-29T16:15:21.114Z,1010.42
2018-06-29T16:17:14.142Z,1010.45
2018-06-29T16:18:14.174Z,1010.39
2018-06-29T16:20:07.213Z,1010.39
2018-06-29T16:21:07.228Z,1010.43
2018-06-29T16:23:00.251Z,1010.37
2018-06-29T16:24:00.282Z,1010.38
2018-06-29T16:25:53.326Z,1010.36
2018-06-29T16:26:53.338Z,1010.32
2018-06-29T16:28:46.382Z,1010.35
2018-06-29T16:29:46.394Z,1010.34
2018-06-29T16:31:39.419Z,1010.32
2018-06-29T16:32:39.451Z,1010.32
2018-06-29T16:34:33.014Z,1010.31
2018-06-29T16:35:33.030Z,1010.34
2018-06-29T16:37:26.065Z,1010.31
2018-06-29T16:38:26.077Z,1010.27
2018-06-29T16:40:19.531Z,1010.32
2018-06-29T16:41:19.541Z,1010.26
2018-06-29T16:43:12.569Z,1010.26
2018-06-29T16:44:12.601Z,1010.25
2018-06-29T16:46:05.640Z,1010.27
2018-06-29T16:47:05.654Z,1010.27
2018-06-29T16:48:58.698Z,1010.25
2018-06-29T16:49:58.711Z,1010.30
2018-06-29T16:51:51.735Z,1010.23
2018-06-29T16:52:51.774Z,1010.23
2018-06-29T16:54:44.835Z,1010.27
2018-06-29T16:55:44.849Z,1010.26
2018-06-29T16:57:37.849Z,1010.21
2018-06-29T16:58:37.884Z,1010.22
2018-06-29T17:00:30.928Z,1010.17
2018-06-29T17:01:30.938Z,1010.23
2018-06-29T17:03:23.965Z,1010.22
2018-06-29T17:04:23.994Z,1010.25
2018-06-29T17:06:18.472Z,1010.29
2018-06-29T17:07:18.487Z,1010.25
2018-06-29T17:09:11.510Z,1010.27
2018-06-29T17:10:11.540Z,1010.31
2018-06-29T17:12:04.589Z,1010.32
2018-06-29T17:13:04.601Z,1010.37
2018-06-29T17:14:57.640Z,1010.30
2018-06-29T17:15:57.723Z,1010.34
2018-06-29T17:17:50.679Z,1010.31
2018-06-29T17:18:50.887Z,1010.28
2018-06-29T17:20:44.267Z,1010.32
2018-06-29T17:21:44.279Z,1010.24
2018-06-29T17:23:37.753Z,1010.30
2018-06-29T17:24:37.744Z,1010.33
2018-06-29T17:26:30.828Z,1010.31